Terminal Aerodrome Forecast
Issued by NWS

Home | Current Version | Previous Version | Text Only | Print | Product List | Glossary On
Versions: 1 2 3 4 5 6 7 8 9 10 11 12 13
299
FTUS45 KRIW 062054 AAA
TAFBPI
TAF AMD
KBPI 062054Z 0621/0718 31011KT P6SM SCT070 BKN200
     FM070200 32014G22KT P6SM SCT050 BKN080
     FM070900 34009KT P6SM SCT080=

USA.gov is the U.S. government's official web portal to all federal, state and local government web resources and services.